createdAt,value
2018-03-23T19:52:42.805Z,17.17
2018-03-23T19:55:55.116Z,19.27
2018-03-23T19:58:22.593Z,19.53
2018-03-23T20:00:50.134Z,21.23
2018-03-23T20:03:18.038Z,23.40
2018-03-23T20:05:45.504Z,21.83
2018-03-23T20:08:12.970Z,22.47
2018-03-23T20:10:41.215Z,21.70
2018-03-23T20:13:08.684Z,21.73
2018-03-23T20:15:36.172Z,22.10
2018-03-23T20:18:09.464Z,22.48
2018-03-23T20:20:42.686Z,22.83
2018-03-23T20:23:10.230Z,21.80
2018-03-23T20:25:37.958Z,22.60
2018-03-23T20:31:08.434Z,26.40
2018-03-23T20:33:36.709Z,25.20
2018-03-23T20:36:04.234Z,23.45
2018-03-23T20:38:31.701Z,21.98
2018-03-23T20:40:59.249Z,23.87
2018-03-23T20:43:26.819Z,22.93
2018-03-23T20:45:55.128Z,20.50
2018-03-23T20:48:22.610Z,19.67
2018-03-23T20:50:50.104Z,20.35
2018-03-23T20:53:18.420Z,19.83
2018-03-23T20:55:45.990Z,18.45
2018-03-23T20:58:14.267Z,20.55
2018-03-23T21:00:41.774Z,18.92
2018-03-23T21:03:09.451Z,18.17
2018-03-23T21:05:37.137Z,19.23
2018-03-23T21:08:04.751Z,20.40
2018-03-23T21:10:32.272Z,19.52
2018-03-23T21:12:59.884Z,17.35
2018-03-23T21:15:27.650Z,17.70
2018-03-23T21:17:55.164Z,18.77
2018-03-23T21:20:22.663Z,18.23
2018-03-23T21:22:51.256Z,23.73
2018-03-23T21:25:19.527Z,30.25
2018-03-23T21:27:47.040Z,25.42
2018-03-23T21:30:14.596Z,23.55
2018-03-23T21:32:42.178Z,20.50
2018-03-23T21:35:09.830Z,22.80
2018-03-23T21:37:37.379Z,21.87
2018-03-23T21:40:04.913Z,20.37
2018-03-23T21:42:33.259Z,23.52
2018-03-23T21:45:00.772Z,22.27
2018-03-23T21:47:28.282Z,21.83
2018-03-23T21:49:55.803Z,22.58
2018-03-23T21:52:23.312Z,22.65
2018-03-23T21:54:51.944Z,23.30
2018-03-23T21:57:19.545Z,23.87
2018-03-23T21:59:47.413Z,24.20
2018-03-23T22:02:16.513Z,24.58
2018-03-23T22:04:44.050Z,27.60
2018-03-23T22:07:20.385Z,30.23
2018-03-23T22:09:49.343Z,27.90
2018-03-23T22:12:17.632Z,29.10
2018-03-23T22:14:45.904Z,25.88
2018-03-23T22:17:13.568Z,28.85
2018-03-23T22:19:42.036Z,27.65
2018-03-23T22:22:09.552Z,28.60
2018-03-23T22:24:37.144Z,26.92
2018-03-23T22:27:04.660Z,30.67
2018-03-23T22:29:32.168Z,30.27
2018-03-23T22:31:59.675Z,27.98
2018-03-23T22:34:27.171Z,27.48
2018-03-23T22:36:54.673Z,26.10
2018-03-23T22:39:22.947Z,29.12
2018-03-23T22:41:51.216Z,28.77
2018-03-23T22:44:19.537Z,24.92
2018-03-23T22:46:47.036Z,25.90
2018-03-23T22:49:14.527Z,26.42
2018-03-23T22:51:42.801Z,24.87
2018-03-23T22:54:11.109Z,22.60
2018-03-23T22:56:38.619Z,26.58
2018-03-23T22:59:06.204Z,26.48
2018-03-23T23:01:33.726Z,30.60
2018-03-23T23:04:01.215Z,27.30
2018-03-23T23:06:29.690Z,27.23
2018-03-23T23:08:57.242Z,29.73
2018-03-23T23:11:24.747Z,32.05
2018-03-23T23:13:52.264Z,33.95
2018-03-23T23:16:19.780Z,32.53
2018-03-23T23:18:47.290Z,29.75
2018-03-23T23:21:15.580Z,30.90
2018-03-23T23:23:43.855Z,29.77
2018-03-23T23:26:11.351Z,28.50
2018-03-23T23:28:38.868Z,32.10
2018-03-23T23:31:07.128Z,27.83
2018-03-23T23:33:34.649Z,25.33
2018-03-23T23:36:02.136Z,27.60
2018-03-23T23:38:29.639Z,30.15
2018-03-23T23:40:57.137Z,32.67
2018-03-23T23:43:24.648Z,32.88
2018-03-23T23:45:52.150Z,30.05
2018-03-23T23:48:20.071Z,27.37
2018-03-23T23:50:48.328Z,26.52
2018-03-23T23:53:15.831Z,25.88
2018-03-23T23:55:43.335Z,24.65
2018-03-23T23:58:10.833Z,24.75
